createdAt,value
2022-12-28T00:02:20.170Z,2.27
2022-12-28T00:04:49.200Z,2.23
2022-12-28T00:07:18.246Z,2.18
2022-12-28T00:09:46.483Z,2.19
2022-12-28T00:12:14.695Z,2.16
2022-12-28T00:14:43.168Z,2.14
2022-12-28T00:17:15.898Z,2.12
2022-12-28T00:19:44.243Z,2.10
2022-12-28T00:22:12.808Z,2.08
2022-12-28T00:24:41.097Z,2.06
2022-12-28T00:27:09.714Z,2.09
2022-12-28T00:29:38.198Z,2.06
2022-12-28T00:32:06.974Z,2.09
2022-12-28T00:34:36.985Z,2.04
2022-12-28T00:37:08.433Z,2.04
2022-12-28T00:39:42.255Z,2.03
2022-12-28T00:42:11.030Z,2.06
2022-12-28T00:44:39.530Z,2.06
2022-12-28T00:47:08.025Z,2.09
2022-12-28T00:49:37.970Z,2.07
2022-12-28T00:52:06.604Z,2.07
2022-12-28T00:54:35.277Z,2.09
2022-12-28T00:57:04.681Z,2.11
2022-12-28T00:59:34.914Z,2.12
2022-12-28T01:02:03.335Z,2.15
2022-12-28T01:04:32.203Z,2.15
2022-12-28T01:07:01.924Z,2.16
2022-12-28T01:09:32.817Z,2.16
2022-12-28T01:12:01.271Z,2.17
2022-12-28T01:14:29.651Z,2.20
2022-12-28T01:16:57.950Z,2.18
2022-12-28T01:19:26.226Z,2.23
2022-12-28T01:21:54.613Z,2.23
2022-12-28T01:24:24.455Z,2.27
2022-12-28T01:26:52.736Z,2.31
2022-12-28T01:29:21.581Z,2.32
2022-12-28T01:31:50.376Z,2.34
2022-12-28T01:34:18.794Z,2.35
2022-12-28T01:36:48.346Z,2.32
2022-12-28T01:39:16.686Z,2.34
2022-12-28T01:41:46.784Z,2.33
2022-12-28T01:44:42.427Z,2.32
2022-12-28T01:47:19.912Z,2.30
2022-12-28T01:49:55.284Z,2.29
2022-12-28T01:52:28.670Z,2.29
2022-12-28T01:55:01.857Z,2.29
2022-12-28T01:57:37.752Z,2.29
2022-12-28T02:00:11.924Z,2.28
2022-12-28T02:02:51.833Z,2.26
2022-12-28T02:05:24.275Z,2.28
2022-12-28T02:07:58.805Z,2.29
2022-12-28T02:10:44.577Z,2.30
2022-12-28T02:13:16.983Z,2.34
2022-12-28T02:15:46.907Z,2.32
2022-12-28T02:18:17.256Z,2.31
2022-12-28T02:21:17.788Z,2.35
2022-12-28T02:24:37.708Z,2.38
2022-12-28T02:27:18.094Z,2.40
2022-12-28T02:30:04.958Z,2.43
2022-12-28T02:32:56.339Z,2.44
2022-12-28T02:35:36.004Z,2.49
2022-12-28T02:38:12.474Z,2.48
2022-12-28T02:40:47.290Z,2.47
2022-12-28T02:43:16.935Z,2.48
2022-12-28T02:46:05.951Z,2.49
2022-12-28T02:48:58.999Z,2.46
2022-12-28T02:51:57.016Z,2.48
2022-12-28T02:55:28.323Z,2.48
2022-12-28T02:58:27.028Z,2.47
2022-12-28T03:01:11.875Z,2.47
2022-12-28T03:03:53.767Z,2.48
2022-12-28T03:06:47.887Z,2.48
2022-12-28T03:09:22.343Z,2.51
2022-12-28T03:11:55.279Z,2.53
2022-12-28T03:14:36.001Z,2.57
2022-12-28T03:17:40.194Z,2.57
2022-12-28T03:20:32.428Z,2.56
2022-12-28T03:23:20.538Z,2.57
2022-12-28T03:26:08.570Z,2.63
2022-12-28T03:29:03.710Z,2.64
2022-12-28T03:31:35.561Z,2.69
2022-12-28T03:34:10.616Z,2.70
2022-12-28T03:36:55.256Z,2.74
2022-12-28T03:39:35.348Z,2.81
2022-12-28T03:42:33.925Z,2.81
2022-12-28T03:45:13.567Z,2.87
2022-12-28T03:47:44.334Z,2.88
2022-12-28T03:50:15.330Z,2.96
2022-12-28T03:52:44.143Z,2.95
2022-12-28T03:55:14.882Z,2.97
2022-12-28T03:57:58.614Z,2.93
2022-12-28T04:00:30.382Z,2.97
2022-12-28T04:02:59.205Z,2.96
2022-12-28T04:05:29.113Z,2.93
2022-12-28T04:07:57.405Z,2.97
2022-12-28T04:10:25.831Z,2.99
2022-12-28T04:12:57.546Z,3.00
2022-12-28T04:15:31.037Z,3.06
2022-12-28T04:18:01.836Z,3.10
2022-12-28T04:20:31.666Z,3.09
2022-12-28T04:22:59.969Z,3.10
2022-12-28T04:25:29.008Z,3.10
2022-12-28T04:27:57.732Z,3.17
2022-12-28T04:30:46.323Z,3.22
2022-12-28T04:33:14.810Z,3.20
2022-12-28T04:35:48.262Z,3.21
2022-12-28T04:38:17.180Z,3.22
2022-12-28T04:40:46.109Z,3.28
2022-12-28T04:43:14.339Z,3.28
2022-12-28T04:45:42.584Z,3.23
2022-12-28T04:48:10.917Z,3.24
2022-12-28T04:50:39.364Z,3.26
2022-12-28T04:53:09.143Z,3.26
2022-12-28T04:55:38.579Z,3.27
2022-12-28T04:58:06.910Z,3.25
2022-12-28T05:00:35.224Z,3.25
2022-12-28T05:03:03.696Z,3.28
2022-12-28T05:05:33.863Z,3.29
2022-12-28T05:08:03.274Z,3.35
2022-12-28T05:10:32.930Z,3.35
2022-12-28T05:13:01.267Z,3.37
2022-12-28T05:15:54.567Z,3.41
2022-12-28T05:18:23.546Z,3.47
2022-12-28T05:20:51.800Z,3.46
2022-12-28T05:23:20.023Z,3.45
2022-12-28T05:25:55.371Z,3.46
2022-12-28T05:28:24.557Z,3.41
2022-12-28T05:30:54.304Z,3.42
2022-12-28T05:33:22.636Z,3.44
2022-12-28T05:35:50.913Z,3.45
2022-12-28T05:38:19.384Z,3.49
2022-12-28T05:40:47.681Z,3.54
2022-12-28T05:43:17.414Z,3.58
2022-12-28T05:45:45.582Z,3.63
2022-12-28T05:48:13.898Z,3.62
2022-12-28T05:50:42.285Z,3.65
2022-12-28T05:53:10.556Z,3.72
2022-12-28T05:55:38.880Z,3.75
2022-12-28T05:58:08.570Z,3.81
2022-12-28T06:00:38.173Z,3.79
2022-12-28T06:03:06.439Z,3.79
2022-12-28T06:05:35.715Z,3.79
2022-12-28T06:08:04.358Z,3.85
2022-12-28T06:10:32.737Z,3.85
2022-12-28T06:13:01.025Z,3.84
2022-12-28T06:15:29.251Z,3.85
2022-12-28T06:18:01.124Z,3.83
2022-12-28T06:20:29.436Z,3.86
2022-12-28T06:23:00.062Z,3.82
2022-12-28T06:25:28.385Z,3.83
2022-12-28T06:27:56.818Z,3.83
2022-12-28T06:30:25.049Z,3.90
2022-12-28T06:32:53.554Z,3.93
2022-12-28T06:35:23.238Z,3.99
2022-12-28T06:37:51.571Z,4.09
2022-12-28T06:40:33.358Z,4.12
2022-12-28T06:43:08.339Z,4.10
2022-12-28T06:45:36.578Z,4.11
2022-12-28T06:48:05.723Z,4.11
2022-12-28T06:50:39.959Z,4.10
2022-12-28T06:53:08.530Z,4.09
2022-12-28T06:55:37.012Z,4.12
2022-12-28T06:58:05.348Z,4.12
2022-12-28T07:00:35.333Z,4.09
2022-12-28T07:03:03.572Z,4.11
2022-12-28T07:05:33.134Z,4.11
2022-12-28T07:08:05.211Z,4.12
2022-12-28T07:10:37.745Z,4.10
2022-12-28T07:13:06.620Z,4.12
2022-12-28T07:15:36.575Z,4.07
2022-12-28T07:18:05.231Z,4.07
2022-12-28T07:20:40.106Z,4.02
2022-12-28T07:23:10.156Z,4.00
2022-12-28T07:25:38.488Z,4.00
2022-12-28T07:28:07.045Z,3.96
2022-12-28T07:30:35.311Z,3.89
2022-12-28T07:33:03.712Z,3.87
2022-12-28T07:35:32.054Z,3.89
2022-12-28T07:38:00.346Z,3.83
2022-12-28T07:40:29.969Z,3.82
2022-12-28T07:43:01.481Z,3.80
2022-12-28T07:45:29.761Z,3.81
2022-12-28T07:47:58.926Z,3.80
2022-12-28T07:50:30.432Z,3.77
2022-12-28T07:53:02.775Z,3.85
2022-12-28T07:55:32.619Z,4.01
2022-12-28T07:58:00.962Z,4.08
2022-12-28T08:00:29.253Z,4.03
2022-12-28T08:02:57.908Z,4.00
2022-12-28T08:05:26.174Z,3.98
2022-12-28T08:07:58.402Z,3.95
2022-12-28T08:10:29.808Z,3.96
2022-12-28T08:13:00.365Z,3.94
2022-12-28T08:15:28.889Z,3.90
2022-12-28T08:17:58.296Z,3.93
2022-12-28T08:20:26.569Z,3.88
2022-12-28T08:22:55.075Z,3.87
2022-12-28T08:25:23.353Z,3.86
2022-12-28T08:27:51.647Z,3.91
2022-12-28T08:30:21.469Z,3.88
2022-12-28T08:32:49.885Z,3.90
2022-12-28T08:35:18.179Z,3.92
2022-12-28T08:37:46.687Z,3.96
2022-12-28T08:40:15.023Z,3.95
2022-12-28T08:42:43.356Z,3.98
2022-12-28T08:45:12.184Z,4.03
2022-12-28T08:47:41.843Z,4.06
2022-12-28T08:50:12.370Z,4.04
2022-12-28T08:52:41.023Z,4.07
2022-12-28T08:55:10.214Z,4.09
2022-12-28T08:57:38.543Z,4.12
2022-12-28T09:00:09.241Z,4.16
2022-12-28T09:02:37.763Z,4.25
2022-12-28T09:05:09.130Z,4.37
2022-12-28T09:07:37.477Z,4.43
2022-12-28T09:10:07.486Z,4.48
2022-12-28T09:12:35.782Z,4.52
2022-12-28T09:15:04.054Z,4.58
2022-12-28T09:17:32.465Z,4.61
2022-12-28T09:20:00.831Z,4.69
2022-12-28T09:22:32.215Z,4.70
2022-12-28T09:25:00.926Z,4.68
2022-12-28T09:27:29.257Z,4.71
2022-12-28T09:29:57.768Z,4.79
2022-12-28T09:32:26.053Z,4.78
2022-12-28T09:34:54.470Z,4.81
2022-12-28T09:37:22.747Z,4.85
2022-12-28T09:39:54.549Z,4.87
2022-12-28T09:42:29.321Z,4.88
2022-12-28T09:45:04.549Z,4.94
2022-12-28T09:47:39.750Z,4.99
2022-12-28T09:50:29.823Z,5.08
2022-12-28T09:53:30.501Z,5.10
2022-12-28T09:56:04.878Z,5.18
2022-12-28T09:58:38.614Z,5.23
2022-12-28T10:01:13.874Z,5.26
2022-12-28T10:03:44.198Z,5.33
2022-12-28T10:06:16.397Z,5.35
2022-12-28T10:08:48.359Z,5.46
2022-12-28T10:11:21.396Z,5.49
2022-12-28T10:13:56.313Z,5.55
2022-12-28T10:16:27.710Z,5.58
2022-12-28T10:18:56.982Z,5.64
2022-12-28T10:21:32.775Z,5.66
2022-12-28T10:26:53.002Z,5.76
2022-12-28T10:29:24.273Z,5.78
2022-12-28T10:32:00.781Z,5.85
2022-12-28T10:34:35.101Z,5.86
2022-12-28T10:37:15.450Z,5.94
2022-12-28T10:39:52.773Z,6.00
2022-12-28T10:42:27.592Z,6.06
2022-12-28T10:45:02.481Z,6.06
2022-12-28T10:47:35.447Z,6.15
2022-12-28T10:50:51.145Z,6.16
2022-12-28T10:53:38.254Z,6.29
2022-12-28T10:57:05.269Z,6.32
2022-12-28T11:00:23.909Z,6.48
2022-12-28T11:02:53.619Z,6.64
2022-12-28T11:05:25.975Z,6.76
2022-12-28T11:08:07.839Z,6.87
2022-12-28T11:10:37.891Z,6.98
2022-12-28T11:13:22.631Z,7.09
2022-12-28T11:15:53.856Z,7.17
2022-12-28T11:18:26.536Z,7.34
2022-12-28T11:20:56.339Z,7.66
2022-12-28T11:23:31.972Z,7.99
2022-12-28T11:26:02.938Z,8.18
2022-12-28T11:28:34.174Z,8.16
2022-12-28T11:31:07.480Z,8.12
2022-12-28T11:33:41.057Z,8.04
2022-12-28T11:36:17.105Z,8.04
2022-12-28T11:38:48.043Z,8.02
2022-12-28T11:41:56.341Z,8.02
2022-12-28T11:44:57.485Z,8.07
2022-12-28T11:47:34.098Z,8.11
2022-12-28T11:50:42.489Z,8.15
2022-12-28T11:53:58.174Z,8.21
2022-12-28T11:56:30.246Z,8.26
2022-12-28T11:59:26.642Z,8.29
2022-12-28T12:02:00.292Z,8.32
2022-12-28T12:04:36.987Z,8.38
2022-12-28T12:07:32.107Z,8.50
2022-12-28T12:10:31.397Z,8.75
2022-12-28T12:13:24.743Z,8.73
2022-12-28T12:15:56.402Z,8.64
2022-12-28T12:18:30.094Z,8.56
2022-12-28T12:21:03.668Z,8.55
2022-12-28T12:23:44.536Z,8.48
2022-12-28T12:26:28.019Z,8.45
2022-12-28T12:29:04.882Z,8.45
2022-12-28T12:31:39.340Z,8.47
2022-12-28T12:34:19.064Z,8.43
2022-12-28T12:37:50.762Z,8.41
2022-12-28T12:40:52.433Z,8.48
2022-12-28T12:43:32.537Z,8.49
2022-12-28T12:46:19.908Z,8.49
2022-12-28T12:49:09.209Z,8.48
2022-12-28T12:52:24.742Z,8.49
2022-12-28T12:56:55.390Z,8.46
2022-12-28T13:00:05.681Z,8.47
2022-12-28T13:03:00.877Z,8.54
2022-12-28T13:05:30.902Z,8.56
2022-12-28T13:08:01.134Z,8.57
2022-12-28T13:10:32.905Z,8.62
2022-12-28T13:13:04.312Z,8.62
2022-12-28T13:15:33.320Z,8.58
2022-12-28T13:18:42.596Z,8.55
2022-12-28T13:20:56.658Z,8.53
2022-12-28T13:23:25.555Z,8.50
2022-12-28T13:25:56.325Z,8.48
2022-12-28T13:28:30.896Z,8.45
2022-12-28T13:31:06.487Z,8.51
2022-12-28T13:33:35.431Z,8.46
2022-12-28T13:36:14.253Z,8.44
2022-12-28T13:38:42.995Z,8.46
2022-12-28T13:41:20.575Z,8.46
2022-12-28T13:44:21.568Z,8.47
2022-12-28T13:46:54.857Z,8.42
2022-12-28T13:49:23.855Z,8.39
2022-12-28T13:51:53.683Z,8.45
2022-12-28T13:54:25.143Z,8.42
2022-12-28T13:57:08.634Z,8.41
2022-12-28T13:59:44.405Z,8.41
2022-12-28T14:02:18.044Z,8.39
2022-12-28T14:04:54.492Z,8.39
2022-12-28T14:07:25.876Z,8.39
2022-12-28T14:09:55.281Z,8.40
2022-12-28T14:12:24.382Z,8.37
2022-12-28T14:14:53.517Z,8.34
2022-12-28T14:17:24.423Z,8.43
2022-12-28T14:19:55.708Z,8.34
2022-12-28T14:22:32.333Z,8.34
2022-12-28T14:25:03.034Z,8.34
2022-12-28T14:27:36.266Z,8.35
2022-12-28T14:30:07.391Z,8.33
2022-12-28T14:32:42.893Z,8.33
2022-12-28T14:35:19.326Z,8.39
2022-12-28T14:37:51.171Z,8.37
2022-12-28T14:40:26.611Z,8.38
2022-12-28T14:42:57.054Z,8.33
2022-12-28T14:48:35.216Z,8.41
2022-12-28T14:51:06.294Z,8.38
2022-12-28T14:53:35.033Z,8.40
2022-12-28T14:56:11.085Z,8.38
2022-12-28T14:58:50.484Z,8.45
2022-12-28T15:01:21.666Z,8.49
2022-12-28T15:03:53.312Z,8.49
2022-12-28T15:06:22.213Z,8.48
2022-12-28T15:08:51.754Z,8.47
2022-12-28T15:11:21.498Z,8.47
2022-12-28T15:13:50.712Z,8.41
2022-12-28T15:16:22.791Z,8.46
2022-12-28T15:18:53.270Z,8.43
2022-12-28T15:21:23.258Z,8.41
2022-12-28T15:23:52.446Z,8.45
2022-12-28T15:26:23.475Z,8.41
2022-12-28T15:28:52.409Z,8.34
2022-12-28T15:31:22.540Z,8.32
2022-12-28T15:33:53.146Z,8.33
2022-12-28T15:36:24.980Z,8.26
2022-12-28T15:38:57.856Z,8.28
2022-12-28T15:41:44.731Z,8.22
2022-12-28T15:44:13.543Z,8.23
2022-12-28T15:46:42.168Z,8.22
2022-12-28T15:49:14.628Z,8.14
2022-12-28T15:51:44.444Z,8.14
2022-12-28T15:54:13.668Z,8.15
2022-12-28T15:56:43.360Z,8.11
2022-12-28T15:59:15.075Z,8.04
2022-12-28T16:01:45.085Z,8.01
2022-12-28T16:04:15.401Z,7.96
2022-12-28T16:06:45.232Z,7.93
2022-12-28T16:09:14.725Z,7.91
2022-12-28T16:11:44.024Z,7.83
2022-12-28T16:14:16.162Z,7.84
2022-12-28T16:16:45.922Z,7.78
2022-12-28T16:19:17.236Z,7.73
2022-12-28T16:21:46.331Z,7.71
2022-12-28T16:24:15.039Z,7.71
2022-12-28T16:26:44.131Z,7.71
2022-12-28T16:29:12.883Z,7.65
2022-12-28T16:31:41.868Z,7.62
2022-12-28T16:34:13.639Z,7.57
2022-12-28T16:36:44.007Z,7.58
2022-12-28T16:39:15.546Z,7.59
2022-12-28T16:41:44.430Z,7.50
2022-12-28T16:44:16.301Z,7.49
2022-12-28T16:46:45.114Z,7.48
2022-12-28T16:49:14.201Z,7.42
2022-12-28T16:51:46.493Z,7.41
2022-12-28T16:54:16.827Z,7.33
2022-12-28T16:56:46.241Z,7.32
2022-12-28T16:59:16.472Z,7.31
2022-12-28T17:01:45.329Z,7.33
2022-12-28T17:04:14.503Z,7.28
2022-12-28T17:06:46.416Z,7.24
2022-12-28T17:09:15.818Z,7.24
2022-12-28T17:11:46.849Z,7.28
2022-12-28T17:14:29.296Z,7.27
2022-12-28T17:17:04.289Z,7.20
2022-12-28T17:19:33.119Z,7.21
2022-12-28T17:22:04.067Z,7.16
2022-12-28T17:24:33.308Z,7.21
2022-12-28T17:27:07.792Z,7.17
2022-12-28T17:29:38.125Z,7.10
2022-12-28T17:32:07.760Z,7.15
2022-12-28T17:34:36.746Z,7.15
2022-12-28T17:37:06.779Z,7.16
2022-12-28T17:39:40.211Z,7.10
2022-12-28T17:42:10.164Z,7.13
2022-12-28T17:44:38.867Z,7.12
2022-12-28T17:47:07.575Z,7.13
2022-12-28T17:49:36.261Z,7.08
2022-12-28T17:52:06.528Z,7.05
2022-12-28T17:54:35.418Z,7.07
2022-12-28T17:57:04.147Z,7.07
2022-12-28T17:59:32.753Z,7.05
2022-12-28T18:02:04.935Z,7.07
2022-12-28T18:04:34.561Z,7.04
2022-12-28T18:07:03.433Z,7.02
2022-12-28T18:09:33.792Z,7.02
2022-12-28T18:12:02.824Z,7.01
2022-12-28T18:14:31.840Z,7.01
2022-12-28T18:17:00.616Z,7.05
2022-12-28T18:19:29.687Z,7.06
2022-12-28T18:21:58.288Z,7.13
2022-12-28T18:24:26.919Z,7.10
2022-12-28T18:26:56.896Z,7.09
2022-12-28T18:29:26.902Z,7.09
2022-12-28T18:31:58.691Z,7.01
2022-12-28T18:34:27.648Z,7.04
2022-12-28T18:36:56.480Z,7.03
2022-12-28T18:39:25.210Z,7.02
2022-12-28T18:41:53.997Z,7.00
2022-12-28T18:44:24.269Z,6.94
2022-12-28T18:46:53.141Z,6.86
2022-12-28T18:49:21.944Z,6.81
2022-12-28T18:51:50.674Z,6.78
2022-12-28T18:54:19.479Z,6.72
2022-12-28T18:56:48.090Z,6.69
2022-12-28T18:59:16.713Z,6.69
2022-12-28T19:04:35.675Z,6.69
2022-12-28T19:07:04.393Z,6.70
2022-12-28T19:09:32.987Z,6.74
2022-12-28T19:12:01.635Z,6.71
2022-12-28T19:14:30.307Z,6.76
2022-12-28T19:17:00.366Z,6.75
2022-12-28T19:19:28.960Z,6.73
2022-12-28T19:21:59.018Z,6.79
2022-12-28T19:24:28.029Z,6.75
2022-12-28T19:26:56.653Z,6.76
2022-12-28T19:29:25.384Z,6.79
2022-12-28T19:31:54.587Z,6.77
2022-12-28T19:34:24.630Z,6.71
2022-12-28T19:36:53.428Z,6.70
2022-12-28T19:39:22.257Z,6.69
2022-12-28T19:41:51.027Z,6.64
2022-12-28T19:44:20.971Z,6.69
2022-12-28T19:46:50.021Z,6.67
2022-12-28T19:49:18.759Z,6.61
2022-12-28T19:51:48.824Z,6.63
2022-12-28T19:54:17.539Z,6.63
2022-12-28T19:56:46.155Z,6.64
2022-12-28T19:59:14.777Z,6.60
2022-12-28T20:01:43.492Z,6.57
2022-12-28T20:04:14.391Z,6.59
2022-12-28T20:06:44.353Z,6.51
2022-12-28T20:09:14.818Z,6.50
2022-12-28T20:11:44.918Z,6.46
2022-12-28T20:14:14.854Z,6.45
2022-12-28T20:16:44.599Z,6.45
2022-12-28T20:19:14.040Z,6.42
2022-12-28T20:21:42.834Z,6.40
2022-12-28T20:24:14.808Z,6.41
2022-12-28T20:26:43.541Z,6.40
2022-12-28T20:29:13.431Z,6.41
2022-12-28T20:31:42.106Z,6.40
2022-12-28T20:34:10.877Z,6.40
2022-12-28T20:36:39.476Z,6.37
2022-12-28T20:39:08.204Z,6.32
2022-12-28T20:41:56.347Z,6.33
2022-12-28T20:44:26.760Z,6.31
2022-12-28T20:46:56.063Z,6.26
2022-12-28T20:49:26.277Z,6.27
2022-12-28T20:51:55.374Z,6.26
2022-12-28T20:54:24.432Z,6.29
2022-12-28T20:56:56.172Z,6.22
2022-12-28T20:59:25.870Z,6.22
2022-12-28T21:01:55.285Z,6.21
2022-12-28T21:04:24.815Z,6.24
2022-12-28T21:06:54.621Z,6.23
2022-12-28T21:09:23.570Z,6.24
2022-12-28T21:11:53.517Z,6.24
2022-12-28T21:14:22.279Z,6.26
2022-12-28T21:16:51.062Z,6.27
2022-12-28T21:19:19.879Z,6.30
2022-12-28T21:21:49.454Z,6.35
2022-12-28T21:24:18.028Z,6.36
2022-12-28T21:26:46.666Z,6.36
2022-12-28T21:29:20.570Z,6.40
2022-12-28T21:31:52.640Z,6.44
2022-12-28T21:34:21.298Z,6.44
2022-12-28T21:36:49.967Z,6.44
2022-12-28T21:39:18.644Z,6.45
2022-12-28T21:41:50.449Z,6.47
2022-12-28T21:44:22.180Z,6.51
2022-12-28T21:46:52.128Z,6.51
2022-12-28T21:49:21.368Z,6.54
2022-12-28T21:51:50.309Z,6.52
2022-12-28T21:54:20.907Z,6.53
2022-12-28T21:56:51.918Z,6.55
2022-12-28T21:59:23.013Z,6.56
2022-12-28T22:02:09.493Z,6.59
2022-12-28T22:05:02.193Z,6.66
2022-12-28T22:07:32.324Z,6.62
2022-12-28T22:10:18.505Z,6.72
2022-12-28T22:12:47.168Z,6.80
2022-12-28T22:15:36.159Z,6.91
2022-12-28T22:18:06.547Z,6.95
2022-12-28T22:20:36.489Z,6.98
2022-12-28T22:23:06.201Z,7.00
2022-12-28T22:25:35.297Z,7.06
2022-12-28T22:28:04.161Z,7.08
2022-12-28T22:30:35.067Z,7.15
2022-12-28T22:33:03.881Z,7.16
2022-12-28T22:35:33.453Z,7.20
2022-12-28T22:38:02.233Z,7.25
2022-12-28T22:40:30.876Z,7.27
2022-12-28T22:42:59.573Z,7.33
2022-12-28T22:45:28.529Z,7.34
2022-12-28T22:48:00.152Z,7.39
2022-12-28T22:50:29.276Z,7.40
2022-12-28T22:52:58.229Z,7.44
2022-12-28T22:55:26.914Z,7.49
2022-12-28T22:57:55.495Z,7.51
2022-12-28T23:00:24.236Z,7.52
2022-12-28T23:02:53.064Z,7.50
2022-12-28T23:05:23.178Z,7.54
2022-12-28T23:07:51.958Z,7.53
2022-12-28T23:10:20.628Z,7.49
2022-12-28T23:12:49.255Z,7.45
2022-12-28T23:15:19.412Z,7.43
2022-12-28T23:17:49.240Z,7.43
2022-12-28T23:20:36.197Z,7.43
2022-12-28T23:23:23.997Z,7.40
2022-12-28T23:26:10.134Z,7.46
2022-12-28T23:28:38.700Z,7.48
2022-12-28T23:31:07.530Z,7.53
2022-12-28T23:33:36.813Z,7.58
2022-12-28T23:36:06.211Z,7.72
2022-12-28T23:38:36.149Z,7.74
2022-12-28T23:41:24.702Z,7.83
2022-12-28T23:43:53.359Z,7.85
2022-12-28T23:46:21.951Z,7.90
2022-12-28T23:48:50.515Z,7.96
2022-12-28T23:51:19.477Z,7.94
2022-12-28T23:53:49.556Z,7.92
2022-12-28T23:56:18.167Z,7.86
2022-12-28T23:58:46.816Z,7.82
